Time;durP1;ratioP1;P1;durP2;ratioP2;P2;SDS_P1;SDS_P2;PMS_P1;PMS_P2;Temp;Humidity;BMP_temperature;BMP_pressure;BME280_temperature;BME280_humidity;BME280_pressure;Samples;Min_cycle;Max_cycle;Signal;HPM_P1;HPM_P2
2024/01/30 00:00:42;;;;;;;0.00;0.00;;;8.60;99.90;;;;;;5066497;28;20169;-58
2024/01/30 00:03:08;;;;;;;0.00;0.00;;;8.60;99.90;;;;;;5064095;28;20431;-59
2024/01/30 00:05:34;;;;;;;0.00;0.00;;;8.50;99.90;;;;;;5068488;28;20383;-58
2024/01/30 00:07:59;;;;;;;0.00;0.00;;;8.50;99.90;;;;;;5066310;28;20724;-57
2024/01/30 00:10:25;;;;;;;0.00;0.00;;;8.50;99.90;;;;;;5063629;28;21247;-58
2024/01/30 00:12:50;;;;;;;0.00;0.00;;;8.50;99.90;;;;;;5063197;28;20380;-58
2024/01/30 00:15:16;;;;;;;0.00;0.00;;;8.50;99.90;;;;;;5068845;28;20040;-58
2024/01/30 00:17:41;;;;;;;0.00;0.00;;;8.40;99.90;;;;;;5069810;28;20035;-58
2024/01/30 00:20:09;;;;;;;0.00;0.00;;;8.40;99.90;;;;;;5068300;28;20051;-59
2024/01/30 00:22:34;;;;;;;0.15;0.15;;;8.40;99.90;;;;;;5065354;28;20129;-59
2024/01/30 00:25:00;;;;;;;0.00;0.00;;;8.30;99.90;;;;;;5069846;28;20028;-59
2024/01/30 00:27:26;;;;;;;0.00;0.00;;;8.30;99.90;;;;;;5071440;28;20118;-57
2024/01/30 00:29:52;;;;;;;0.35;0.35;;;8.40;99.90;;;;;;5066168;28;20036;-57
2024/01/30 00:32:19;;;;;;;0.45;0.45;;;8.30;99.90;;;;;;5071355;28;20113;-58
2024/01/30 00:34:44;;;;;;;0.00;0.00;;;8.30;99.90;;;;;;5065155;28;20028;-58
2024/01/30 00:37:10;;;;;;;0.00;0.00;;;8.30;99.90;;;;;;5063244;28;20515;-58
2024/01/30 00:39:36;;;;;;;0.00;0.00;;;8.30;99.90;;;;;;5064831;28;20020;-57
2024/01/30 00:42:01;;;;;;;0.17;0.08;;;8.30;99.90;;;;;;5065021;28;20044;-59
2024/01/30 00:44:27;;;;;;;0.00;0.00;;;8.30;99.90;;;;;;5062274;28;20101;-58
2024/01/30 00:46:53;;;;;;;1.13;0.75;;;8.40;99.90;;;;;;5061223;28;20365;-58
2024/01/30 00:49:18;;;;;;;2.17;0.75;;;8.40;99.90;;;;;;5068532;28;20535;-58
2024/01/30 00:51:44;;;;;;;0.10;0.10;;;8.40;99.90;;;;;;5046677;28;20025;-56
2024/01/30 00:54:09;;;;;;;0.00;0.00;;;8.30;99.90;;;;;;5069194;28;20020;-57
2024/01/30 00:56:35;;;;;;;0.00;0.00;;;8.30;99.90;;;;;;5062714;28;20502;-57
2024/01/30 00:59:00;;;;;;;0.00;0.00;;;8.20;99.90;;;;;;5067857;28;20537;-58
2024/01/30 01:01:26;;;;;;;0.55;0.50;;;8.30;99.90;;;;;;5068194;28;20029;-57
2024/01/30 01:03:52;;;;;;;0.10;0.10;;;8.20;99.90;;;;;;5069534;28;20475;-58
2024/01/30 01:06:17;;;;;;;0.00;0.00;;;8.30;99.90;;;;;;5064080;28;20024;-57
2024/01/30 01:08:43;;;;;;;0.00;0.00;;;8.30;99.90;;;;;;5068413;28;20391;-55
2024/01/30 01:11:09;;;;;;;0.10;0.10;;;8.40;99.90;;;;;;5071644;28;20510;-56
2024/01/30 01:13:34;;;;;;;0.00;0.00;;;8.20;99.90;;;;;;5068252;28;20161;-56
2024/01/30 01:16:00;;;;;;;0.00;0.00;;;8.30;99.90;;;;;;5067137;28;21341;-56
2024/01/30 01:18:27;;;;;;;0.20;0.20;;;8.30;99.90;;;;;;5063125;28;20056;-57
2024/01/30 01:20:52;;;;;;;0.40;0.40;;;8.30;99.90;;;;;;5062290;28;20028;-56
2024/01/30 01:23:18;;;;;;;0.00;0.00;;;8.30;99.90;;;;;;5063491;28;20035;-57
2024/01/30 01:25:44;;;;;;;0.70;0.38;;;8.30;99.90;;;;;;5068102;28;20028;-56
2024/01/30 01:28:10;;;;;;;0.15;0.15;;;8.30;99.90;;;;;;5061138;28;20571;-56
2024/01/30 01:30:35;;;;;;;0.08;0.08;;;8.30;99.90;;;;;;5063869;28;20050;-55
2024/01/30 01:33:02;;;;;;;0.08;0.08;;;8.30;99.90;;;;;;5064408;28;20056;-56
2024/01/30 01:35:28;;;;;;;0.00;0.00;;;8.30;99.90;;;;;;5060870;28;20464;-58
2024/01/30 01:37:58;;;;;;;0.00;0.00;;;8.20;99.90;;;;;;5062616;28;20044;-58
2024/01/30 01:40:24;;;;;;;0.00;0.00;;;8.20;99.90;;;;;;5064930;28;20028;-58
2024/01/30 01:42:54;;;;;;;0.00;0.00;;;8.20;99.90;;;;;;5067790;28;20511;-58
2024/01/30 01:45:20;;;;;;;0.30;0.30;;;8.20;99.90;;;;;;5061588;28;20036;-57
2024/01/30 01:47:51;;;;;;;3.65;0.45;;;8.20;99.90;;;;;;5065496;28;20036;-57
2024/01/30 01:50:21;;;;;;;0.20;0.20;;;8.20;99.90;;;;;;5064061;28;20028;-58
2024/01/30 01:52:48;;;;;;;0.00;0.00;;;8.10;99.90;;;;;;5065870;28;20028;-58
2024/01/30 01:55:15;;;;;;;0.75;0.65;;;8.20;99.90;;;;;;5048390;28;20120;-58
2024/01/30 01:57:42;;;;;;;0.00;0.00;;;8.10;99.90;;;;;;5061847;28;20112;-57
2024/01/30 02:00:10;;;;;;;0.85;0.73;;;8.20;99.90;;;;;;5067370;28;20127;-59
2024/01/30 02:02:36;;;;;;;0.00;0.00;;;8.10;99.90;;;;;;5072455;28;20095;-57
2024/01/30 02:05:02;;;;;;;0.00;0.00;;;8.20;99.90;;;;;;5063992;28;20055;-57
2024/01/30 02:07:28;;;;;;;0.08;0.08;;;8.10;99.90;;;;;;5069179;28;20043;-58
2024/01/30 02:09:55;;;;;;;0.00;0.00;;;8.10;99.90;;;;;;5059594;28;20032;-58
2024/01/30 02:12:20;;;;;;;0.00;0.00;;;8.10;99.90;;;;;;5059506;28;20460;-56
2024/01/30 02:14:47;;;;;;;7.03;1.55;;;8.10;99.90;;;;;;5062292;28;20097;-58
2024/01/30 02:17:13;;;;;;;0.08;0.08;;;8.00;99.90;;;;;;5064629;28;20040;-58
2024/01/30 02:19:39;;;;;;;0.40;0.40;;;8.00;99.90;;;;;;5059988;28;20029;-58
2024/01/30 02:22:05;;;;;;;3.25;2.83;;;8.00;99.90;;;;;;5063270;28;20050;-58
2024/01/30 02:24:31;;;;;;;0.00;0.00;;;8.00;99.90;;;;;;5065875;28;20399;-59
2024/01/30 02:26:57;;;;;;;0.40;0.40;;;8.00;99.90;;;;;;5068527;28;20024;-58
2024/01/30 02:29:23;;;;;;;0.00;0.00;;;8.10;99.90;;;;;;5066647;28;20673;-58
2024/01/30 02:31:48;;;;;;;1.45;0.55;;;8.00;99.90;;;;;;5065782;28;20432;-59
2024/01/30 02:34:14;;;;;;;0.52;0.35;;;8.00;99.90;;;;;;5067647;28;20054;-58
2024/01/30 02:36:43;;;;;;;0.00;0.00;;;7.90;99.90;;;;;;5068912;28;20032;-59
2024/01/30 02:39:09;;;;;;;0.05;0.05;;;7.90;99.90;;;;;;5066229;28;20468;-58
2024/01/30 02:41:35;;;;;;;0.00;0.00;;;7.90;99.90;;;;;;5061993;28;20044;-58
2024/01/30 02:44:01;;;;;;;0.35;0.35;;;8.00;99.90;;;;;;5068018;28;20372;-57
2024/01/30 02:46:26;;;;;;;0.85;0.73;;;7.90;99.90;;;;;;5046234;28;20063;-56
2024/01/30 02:48:52;;;;;;;0.00;0.00;;;7.80;99.90;;;;;;5062417;28;20379;-57
2024/01/30 02:51:18;;;;;;;0.00;0.00;;;7.90;99.90;;;;;;5059847;28;20672;-57
2024/01/30 02:53:43;;;;;;;0.00;0.00;;;8.00;99.90;;;;;;5060540;28;20102;-55
2024/01/30 02:56:09;;;;;;;0.00;0.00;;;7.90;99.90;;;;;;5063926;28;20363;-57
2024/01/30 02:58:36;;;;;;;0.00;0.00;;;7.90;99.90;;;;;;5045954;28;20017;-55
2024/01/30 03:01:02;;;;;;;0.25;0.05;;;7.90;99.90;;;;;;5060611;28;20360;-55
2024/01/30 03:03:27;;;;;;;0.00;0.00;;;8.00;99.90;;;;;;5066828;28;20103;-56
2024/01/30 03:05:53;;;;;;;0.45;0.43;;;8.00;99.90;;;;;;5061155;28;20066;-57
2024/01/30 03:08:19;;;;;;;0.00;0.00;;;7.90;99.90;;;;;;5070421;28;20028;-57
2024/01/30 03:10:44;;;;;;;0.00;0.00;;;7.90;99.90;;;;;;5069939;28;20324;-57
2024/01/30 03:13:10;;;;;;;2.20;1.92;;;7.90;99.90;;;;;;5069361;28;20111;-56
2024/01/30 03:15:35;;;;;;;0.00;0.00;;;8.10;99.90;;;;;;5066270;28;20032;-57
2024/01/30 03:18:03;;;;;;;0.35;0.35;;;8.00;99.90;;;;;;5061609;28;20475;-56
2024/01/30 03:20:29;;;;;;;0.00;0.00;;;7.90;99.90;;;;;;5066791;28;20028;-57
2024/01/30 03:22:55;;;;;;;0.28;0.28;;;7.90;99.90;;;;;;5065988;28;20849;-57
2024/01/30 03:25:21;;;;;;;0.00;0.00;;;7.90;99.90;;;;;;5065414;28;20025;-56
2024/01/30 03:27:47;;;;;;;0.13;0.13;;;7.90;99.90;;;;;;5064970;28;20036;-56
2024/01/30 03:30:12;;;;;;;0.00;0.00;;;7.90;99.90;;;;;;5050589;28;20020;-56
2024/01/30 03:32:38;;;;;;;0.00;0.00;;;7.90;99.90;;;;;;5068092;28;20036;-55
2024/01/30 03:35:04;;;;;;;0.00;0.00;;;7.90;99.90;;;;;;5065304;28;20049;-55
2024/01/30 03:37:29;;;;;;;0.00;0.00;;;7.90;99.90;;;;;;5067757;28;20024;-55
2024/01/30 03:39:55;;;;;;;0.10;0.10;;;7.80;99.90;;;;;;5064797;28;20500;-57
2024/01/30 03:42:22;;;;;;;0.45;0.45;;;7.90;99.90;;;;;;5064863;28;20032;-55
2024/01/30 03:44:47;;;;;;;0.00;0.00;;;7.90;99.90;;;;;;5065755;28;20027;-56
2024/01/30 03:47:13;;;;;;;0.00;0.00;;;7.90;99.90;;;;;;5065668;28;20115;-56
2024/01/30 03:49:39;;;;;;;1.08;0.10;;;7.90;99.90;;;;;;5063980;28;20028;-56
2024/01/30 03:52:04;;;;;;;0.00;0.00;;;7.90;99.90;;;;;;5068378;28;20028;-57
2024/01/30 03:54:30;;;;;;;0.32;0.32;;;7.80;99.90;;;;;;5065221;28;20029;-57
2024/01/30 03:56:55;;;;;;;0.60;0.60;;;7.90;99.90;;;;;;5066418;28;20074;-58
2024/01/30 03:59:23;;;;;;;0.00;0.00;;;7.90;99.90;;;;;;5065124;28;20075;-55
2024/01/30 04:01:50;;;;;;;0.00;0.00;;;7.90;99.90;;;;;;5065931;28;20040;-58
2024/01/30 04:04:17;;;;;;;0.00;0.00;;;7.90;99.90;;;;;;5064807;28;20038;-58
2024/01/30 04:06:43;;;;;;;0.08;0.08;;;7.80;99.90;;;;;;5064297;28;20029;-58
2024/01/30 04:09:09;;;;;;;0.00;0.00;;;7.80;99.90;;;;;;5065376;28;20455;-58
2024/01/30 04:11:35;;;;;;;0.00;0.00;;;7.70;99.90;;;;;;5063950;28;20048;-59
2024/01/30 04:14:00;;;;;;;0.00;0.00;;;7.80;99.90;;;;;;5068519;28;20024;-58
2024/01/30 04:16:26;;;;;;;0.82;0.65;;;7.80;99.90;;;;;;5064944;28;20030;-58
2024/01/30 04:18:52;;;;;;;2.17;0.75;;;7.70;99.90;;;;;;5063658;28;20094;-58
2024/01/30 04:21:17;;;;;;;0.00;0.00;;;7.70;99.90;;;;;;5047082;28;20033;-58
2024/01/30 04:23:43;;;;;;;0.22;0.22;;;7.70;99.90;;;;;;5063756;28;20110;-57
2024/01/30 04:26:09;;;;;;;0.00;0.00;;;7.60;99.90;;;;;;5069844;28;20032;-56
2024/01/30 04:28:34;;;;;;;0.00;0.00;;;7.60;99.90;;;;;;5068930;28;20480;-58
2024/01/30 04:31:00;;;;;;;0.00;0.00;;;7.60;99.90;;;;;;5067376;28;20112;-58
2024/01/30 04:33:25;;;;;;;0.03;0.03;;;7.80;99.90;;;;;;5046178;28;20086;-58
2024/01/30 04:35:51;;;;;;;0.20;0.20;;;7.80;99.90;;;;;;5064800;28;20036;-59
2024/01/30 04:38:17;;;;;;;0.22;0.22;;;7.80;99.90;;;;;;5067343;28;20033;-58
2024/01/30 04:40:43;;;;;;;0.00;0.00;;;7.60;99.90;;;;;;5069564;28;20051;-59
2024/01/30 04:43:08;;;;;;;0.20;0.20;;;7.70;99.90;;;;;;5067761;28;20029;-58
2024/01/30 04:45:34;;;;;;;0.00;0.00;;;7.70;99.90;;;;;;5065442;28;20584;-57
2024/01/30 04:48:00;;;;;;;0.00;0.00;;;7.70;99.90;;;;;;5064346;28;20086;-59
2024/01/30 04:50:26;;;;;;;0.00;0.00;;;7.60;99.90;;;;;;5064070;28;20504;-55
2024/01/30 04:52:52;;;;;;;0.00;0.00;;;7.60;99.90;;;;;;5066628;28;20142;-59
2024/01/30 04:55:18;;;;;;;0.00;0.00;;;7.70;99.90;;;;;;5062663;28;20456;-59
2024/01/30 04:57:43;;;;;;;0.00;0.00;;;7.80;99.90;;;;;;5067774;28;20142;-58
2024/01/30 05:00:09;;;;;;;0.10;0.10;;;7.70;99.90;;;;;;5067379;28;20034;-57
2024/01/30 05:02:35;;;;;;;0.25;0.25;;;7.80;99.90;;;;;;5068388;28;20486;-59
2024/01/30 05:05:00;;;;;;;0.32;0.32;;;7.80;99.90;;;;;;5067833;28;20040;-56
2024/01/30 05:07:26;;;;;;;0.00;0.00;;;7.90;99.90;;;;;;5048070;28;20028;-58
2024/01/30 05:09:51;;;;;;;0.25;0.03;;;7.80;99.90;;;;;;5066034;28;20106;-58
2024/01/30 05:12:17;;;;;;;0.00;0.00;;;7.80;99.90;;;;;;5062964;28;20121;-58
2024/01/30 05:14:45;;;;;;;0.52;0.52;;;7.80;99.90;;;;;;5068328;28;20021;-56
2024/01/30 05:17:12;;;;;;;0.13;0.13;;;7.80;99.90;;;;;;5063460;28;20040;-59
2024/01/30 05:19:38;;;;;;;0.00;0.00;;;7.70;99.90;;;;;;5048044;28;20028;-56
2024/01/30 05:22:04;;;;;;;0.00;0.00;;;7.80;99.90;;;;;;5044416;28;20052;-58
2024/01/30 05:24:29;;;;;;;0.10;0.10;;;7.70;99.90;;;;;;5045375;28;20027;-57
2024/01/30 05:26:55;;;;;;;0.35;0.30;;;7.70;99.90;;;;;;5066713;28;20056;-58
2024/01/30 05:29:20;;;;;;;0.20;0.20;;;7.80;99.90;;;;;;5065657;28;20036;-57
2024/01/30 05:31:46;;;;;;;0.03;0.03;;;7.70;99.90;;;;;;5062027;28;20526;-57
2024/01/30 05:34:12;;;;;;;0.00;0.00;;;7.60;99.90;;;;;;5063759;28;20229;-58
2024/01/30 05:36:37;;;;;;;0.32;0.32;;;7.60;99.90;;;;;;5064949;28;20649;-58
2024/01/30 05:39:03;;;;;;;0.10;0.10;;;7.70;99.90;;;;;;5062379;28;20025;-58
2024/01/30 05:41:28;;;;;;;0.57;0.57;;;7.70;99.90;;;;;;5061839;28;20125;-57
2024/01/30 05:43:54;;;;;;;0.63;0.63;;;7.70;99.90;;;;;;5072838;28;20028;-58
2024/01/30 05:46:19;;;;;;;0.00;0.00;;;7.80;99.90;;;;;;5068128;28;20028;-58
2024/01/30 05:48:45;;;;;;;0.00;0.00;;;7.80;99.90;;;;;;5066307;28;20028;-58
2024/01/30 05:51:10;;;;;;;0.00;0.00;;;7.70;99.90;;;;;;5043169;28;20123;-58
2024/01/30 05:53:36;;;;;;;0.57;0.38;;;7.70;99.90;;;;;;5046952;28;20064;-56
2024/01/30 05:56:02;;;;;;;0.00;0.00;;;7.70;99.90;;;;;;5065556;28;20024;-56
2024/01/30 05:58:28;;;;;;;0.32;0.32;;;7.70;99.90;;;;;;5063442;28;20031;-56
2024/01/30 06:00:54;;;;;;;0.00;0.00;;;7.70;99.90;;;;;;5066941;28;20052;-58
2024/01/30 06:03:19;;;;;;;0.00;0.00;;;7.70;99.90;;;;;;5062160;28;20025;-58
2024/01/30 06:05:45;;;;;;;0.10;0.10;;;7.70;99.90;;;;;;5061402;28;20033;-56
2024/01/30 06:08:11;;;;;;;0.20;0.20;;;7.70;99.90;;;;;;5062068;28;20032;-57
2024/01/30 06:10:36;;;;;;;0.00;0.00;;;7.80;99.90;;;;;;5059272;28;20021;-57
2024/01/30 06:13:02;;;;;;;0.30;0.30;;;7.80;99.90;;;;;;5064789;28;20028;-58
2024/01/30 06:15:29;;;;;;;0.00;0.00;;;7.70;99.90;;;;;;5063810;28;20511;-58
2024/01/30 06:17:55;;;;;;;0.00;0.00;;;7.80;99.90;;;;;;5064185;28;20593;-58
2024/01/30 06:20:21;;;;;;;0.00;0.00;;;7.80;99.90;;;;;;5062258;28;20025;-58
2024/01/30 06:22:46;;;;;;;0.00;0.00;;;7.80;99.90;;;;;;5065297;28;20033;-58
2024/01/30 06:25:12;;;;;;;0.00;0.00;;;7.80;99.90;;;;;;5059670;28;20060;-56
2024/01/30 06:27:38;;;;;;;0.28;0.28;;;7.80;99.90;;;;;;5047592;28;20032;-57
2024/01/30 06:30:05;;;;;;;0.00;0.00;;;7.80;99.90;;;;;;5063329;28;20036;-56
2024/01/30 06:32:34;;;;;;;0.00;0.00;;;7.80;99.90;;;;;;5065133;28;20395;-55
2024/01/30 06:35:00;;;;;;;0.03;0.03;;;7.80;99.90;;;;;;5064864;28;20032;-56
2024/01/30 06:37:25;;;;;;;0.00;0.00;;;7.90;99.90;;;;;;5063532;28;20464;-55
2024/01/30 06:39:52;;;;;;;0.00;0.00;;;7.90;99.90;;;;;;5067641;28;20033;-56
2024/01/30 06:42:18;;;;;;;0.00;0.00;;;7.90;99.90;;;;;;5033170;28;20040;-55
2024/01/30 06:44:44;;;;;;;0.05;0.05;;;7.90;99.90;;;;;;5065146;28;20040;-57
2024/01/30 06:47:09;;;;;;;0.00;0.00;;;7.90;99.90;;;;;;5062332;28;20173;-56
2024/01/30 06:49:38;;;;;;;0.08;0.08;;;8.00;99.90;;;;;;5068043;28;20028;-57
2024/01/30 06:52:07;;;;;;;0.38;0.35;;;8.00;99.90;;;;;;5072960;28;20503;-56
2024/01/30 06:54:33;;;;;;;0.00;0.00;;;7.90;99.90;;;;;;5064990;28;20476;-56
2024/01/30 06:56:59;;;;;;;0.60;0.38;;;7.90;99.90;;;;;;5043342;28;20039;-56
2024/01/30 06:59:24;;;;;;;0.10;0.10;;;7.90;99.90;;;;;;5066782;28;20094;-57
2024/01/30 07:01:50;;;;;;;0.55;0.55;;;7.80;99.90;;;;;;5065572;28;20059;-56
2024/01/30 07:04:16;;;;;;;0.10;0.10;;;7.90;99.90;;;;;;5067581;28;20539;-56
2024/01/30 07:06:41;;;;;;;0.00;0.00;;;7.90;99.90;;;;;;5067769;28;20523;-56
2024/01/30 07:09:08;;;;;;;0.00;0.00;;;7.90;99.90;;;;;;5066551;28;20036;-54
2024/01/30 07:11:34;;;;;;;0.10;0.10;;;7.90;99.90;;;;;;5070807;28;20764;-57
2024/01/30 07:14:00;;;;;;;0.00;0.00;;;8.00;99.90;;;;;;5064541;28;20033;-57
2024/01/30 07:16:25;;;;;;;0.00;0.00;;;8.10;99.90;;;;;;5064894;28;20110;-55
2024/01/30 07:18:51;;;;;;;0.00;0.00;;;8.10;99.90;;;;;;5067476;28;20090;-55
2024/01/30 07:21:17;;;;;;;0.00;0.00;;;8.20;99.90;;;;;;5070609;28;20032;-56
2024/01/30 07:23:43;;;;;;;0.10;0.10;;;8.20;99.90;;;;;;5067859;28;20028;-55
2024/01/30 07:26:09;;;;;;;0.20;0.20;;;8.10;99.90;;;;;;5069052;28;20364;-56
2024/01/30 07:28:35;;;;;;;0.10;0.10;;;8.10;99.90;;;;;;5065721;28;20348;-55
2024/01/30 07:31:03;;;;;;;0.00;0.00;;;8.10;99.90;;;;;;5055480;28;20484;-53
2024/01/30 07:33:29;;;;;;;0.00;0.00;;;8.00;99.90;;;;;;5067026;28;20054;-54
2024/01/30 07:35:55;;;;;;;0.08;0.08;;;8.10;99.90;;;;;;5063978;28;20480;-57
2024/01/30 07:38:20;;;;;;;0.00;0.00;;;8.10;99.90;;;;;;5064677;28;20024;-57
2024/01/30 07:40:46;;;;;;;0.63;0.63;;;8.10;99.90;;;;;;5066590;28;20068;-58
2024/01/30 07:43:11;;;;;;;0.03;0.03;;;8.00;99.90;;;;;;5070126;28;20039;-59
2024/01/30 07:45:38;;;;;;;0.40;0.40;;;8.10;99.90;;;;;;5064503;28;20027;-57
2024/01/30 07:48:07;;;;;;;0.55;0.20;;;8.10;99.90;;;;;;5061515;28;20251;-56
2024/01/30 07:50:32;;;;;;;0.30;0.30;;;8.10;99.90;;;;;;5066433;28;20033;-58
2024/01/30 07:53:00;;;;;;;0.52;0.38;;;8.00;99.90;;;;;;5065697;28;20039;-57
2024/01/30 07:55:28;;;;;;;0.22;0.22;;;8.00;99.90;;;;;;5071254;28;20037;-58
2024/01/30 07:57:54;;;;;;;0.10;0.10;;;8.00;99.90;;;;;;5065894;28;20101;-58
2024/01/30 08:00:21;;;;;;;0.00;0.00;;;8.10;99.90;;;;;;5066437;28;20578;-58
2024/01/30 08:02:47;;;;;;;0.00;0.00;;;8.10;99.90;;;;;;5060438;28;20046;-58
2024/01/30 08:05:15;;;;;;;0.00;0.00;;;8.00;99.90;;;;;;5061094;28;20460;-56
2024/01/30 08:07:43;;;;;;;1.45;0.65;;;8.10;99.90;;;;;;5061947;28;20032;-57
2024/01/30 08:10:11;;;;;;;0.00;0.00;;;8.10;99.90;;;;;;5058875;28;20121;-58
2024/01/30 08:12:36;;;;;;;0.00;0.00;;;8.20;99.90;;;;;;5055494;28;20028;-57
2024/01/30 08:15:03;;;;;;;0.00;0.00;;;8.20;99.90;;;;;;5060077;28;20024;-58
2024/01/30 08:17:28;;;;;;;0.00;0.00;;;8.30;99.90;;;;;;5060063;28;20665;-59
2024/01/30 08:19:54;;;;;;;0.08;0.08;;;8.30;99.90;;;;;;5065326;28;20043;-58
2024/01/30 08:22:19;;;;;;;0.00;0.00;;;8.40;99.90;;;;;;5063117;28;20391;-58
2024/01/30 08:24:45;;;;;;;0.00;0.00;;;8.40;99.90;;;;;;5028312;28;20384;-58
2024/01/30 08:27:12;;;;;;;0.00;0.00;;;8.40;99.90;;;;;;5057230;28;20547;-57
2024/01/30 08:29:37;;;;;;;0.00;0.00;;;8.40;99.90;;;;;;5061526;28;20425;-58
2024/01/30 08:32:05;;;;;;;0.35;0.20;;;8.50;99.90;;;;;;5062957;28;20031;-58
2024/01/30 08:34:30;;;;;;;0.00;0.00;;;8.40;99.90;;;;;;5061282;28;20385;-57
2024/01/30 08:36:56;;;;;;;0.10;0.08;;;8.40;99.90;;;;;;5065238;28;20028;-56
2024/01/30 08:39:22;;;;;;;0.00;0.00;;;8.50;99.90;;;;;;5067691;28;20637;-59
2024/01/30 08:41:47;;;;;;;0.20;0.20;;;8.40;99.90;;;;;;5063555;28;20037;-58
2024/01/30 08:44:13;;;;;;;0.05;0.05;;;8.50;99.90;;;;;;5064313;28;20103;-58
2024/01/30 08:46:38;;;;;;;0.00;0.00;;;8.50;99.90;;;;;;5063589;28;20132;-55
2024/01/30 08:49:04;;;;;;;0.00;0.00;;;8.50;99.90;;;;;;5059390;28;20024;-54
2024/01/30 08:51:30;;;;;;;0.10;0.10;;;8.60;99.90;;;;;;5063547;28;20413;-53
2024/01/30 08:53:56;;;;;;;0.00;0.00;;;8.60;99.90;;;;;;5064596;28;20032;-55
2024/01/30 08:56:21;;;;;;;1.95;1.88;;;8.60;99.90;;;;;;5064255;28;20051;-55
2024/01/30 08:58:47;;;;;;;1.75;0.10;;;8.60;99.90;;;;;;5061639;28;21466;-56
2024/01/30 09:01:12;;;;;;;0.43;0.43;;;8.60;99.90;;;;;;5060283;28;20681;-56
2024/01/30 09:03:40;;;;;;;0.15;0.15;;;8.60;99.90;;;;;;5053090;28;20025;-55
2024/01/30 09:06:10;;;;;;;1.50;0.80;;;8.60;99.90;;;;;;5062618;28;20035;-55
2024/01/30 09:08:35;;;;;;;0.17;0.17;;;8.60;99.90;;;;;;5063890;28;20028;-55
2024/01/30 09:11:08;;;;;;;0.57;0.43;;;8.60;99.90;;;;;;5064755;28;20041;-56
2024/01/30 09:13:33;;;;;;;0.00;0.00;;;8.60;99.90;;;;;;5067682;28;20032;-54
2024/01/30 09:15:59;;;;;;;0.15;0.15;;;8.60;99.90;;;;;;5065386;28;20509;-56
2024/01/30 09:18:24;;;;;;;0.00;0.00;;;8.70;99.90;;;;;;5050205;28;20036;-56
2024/01/30 09:20:50;;;;;;;0.13;0.13;;;8.70;99.90;;;;;;5064688;28;20420;-57
2024/01/30 09:23:17;;;;;;;0.00;0.00;;;8.90;99.90;;;;;;5051502;28;20552;-55
2024/01/30 09:25:42;;;;;;;1.38;0.45;;;8.90;99.90;;;;;;5067898;28;20027;-56
2024/01/30 09:28:08;;;;;;;0.00;0.00;;;9.00;99.90;;;;;;5064025;28;20111;-55
2024/01/30 09:30:34;;;;;;;0.47;0.40;;;9.10;99.90;;;;;;5061081;28;20029;-55
2024/01/30 09:32:59;;;;;;;0.00;0.00;;;9.00;99.90;;;;;;5066335;28;20494;-55
2024/01/30 09:35:25;;;;;;;0.88;0.85;;;9.10;99.90;;;;;;5065785;28;20626;-55
2024/01/30 09:37:52;;;;;;;0.20;0.20;;;9.20;99.90;;;;;;5065199;28;20151;-55
2024/01/30 09:40:18;;;;;;;0.10;0.10;;;9.20;99.90;;;;;;5057288;28;20102;-55
2024/01/30 09:42:48;;;;;;;0.77;0.52;;;9.30;99.90;;;;;;5064596;28;21071;-56
2024/01/30 09:45:14;;;;;;;0.03;0.03;;;9.30;99.90;;;;;;5065294;28;20543;-57
2024/01/30 09:47:44;;;;;;;0.00;0.00;;;9.40;99.90;;;;;;5071962;28;20039;-57
2024/01/30 09:50:11;;;;;;;0.05;0.05;;;9.40;99.90;;;;;;5061863;28;20070;-57
2024/01/30 09:52:37;;;;;;;0.32;0.32;;;9.50;99.90;;;;;;5064760;28;20534;-56
2024/01/30 09:55:04;;;;;;;1.42;0.55;;;9.50;99.90;;;;;;5038295;28;20036;-57
2024/01/30 09:57:29;;;;;;;0.00;0.00;;;9.60;99.90;;;;;;5060517;28;20036;-57
2024/01/30 09:59:55;;;;;;;0.13;0.13;;;9.60;99.90;;;;;;5058664;28;20513;-55
2024/01/30 10:02:21;;;;;;;0.45;0.38;;;9.70;99.90;;;;;;5066186;28;20054;-54
2024/01/30 10:04:51;;;;;;;0.00;0.00;;;9.70;99.90;;;;;;5046059;28;20103;-56
2024/01/30 10:07:20;;;;;;;0.22;0.22;;;9.70;99.90;;;;;;5065554;28;20044;-57
2024/01/30 10:09:46;;;;;;;1.27;1.20;;;9.80;99.90;;;;;;5058089;28;20040;-55
2024/01/30 10:12:12;;;;;;;1.13;1.02;;;9.70;99.90;;;;;;5062284;28;20020;-56
2024/01/30 10:14:41;;;;;;;0.00;0.00;;;9.70;99.90;;;;;;5056563;28;20116;-56
2024/01/30 10:17:11;;;;;;;0.45;0.45;;;9.80;99.90;;;;;;5059532;28;20025;-55
2024/01/30 10:19:41;;;;;;;0.50;0.50;;;9.70;99.90;;;;;;5060095;28;20035;-55
2024/01/30 10:22:07;;;;;;;0.00;0.00;;;9.80;99.90;;;;;;5068815;28;20081;-54
2024/01/30 10:24:35;;;;;;;0.00;0.00;;;9.80;99.90;;;;;;5048819;28;20028;-56
2024/01/30 10:27:01;;;;;;;0.88;0.65;;;9.80;99.90;;;;;;5067648;28;20103;-56
2024/01/30 10:29:28;;;;;;;0.65;0.65;;;9.90;99.90;;;;;;5066528;28;20032;-56
2024/01/30 10:32:04;;;;;;;0.00;0.00;;;9.90;99.90;;;;;;5069151;28;20119;-56
2024/01/30 10:34:30;;;;;;;0.38;0.20;;;;;;;;;;5056057;28;20155;-55
2024/01/30 10:37:17;;;;;;;0.30;0.30;;;10.00;99.90;;;;;;5061048;28;20024;-55
2024/01/30 10:39:44;;;;;;;0.10;0.10;;;10.10;99.90;;;;;;5067314;28;20604;-55
2024/01/30 10:42:18;;;;;;;0.00;0.00;;;10.00;99.90;;;;;;5068264;28;20040;-56
2024/01/30 10:45:03;;;;;;;3.00;1.10;;;10.10;99.90;;;;;;5064696;28;20036;-56
2024/01/30 10:47:29;;;;;;;1.65;0.28;;;10.10;99.90;;;;;;5066344;28;20040;-54
2024/01/30 10:49:56;;;;;;;0.05;0.05;;;10.20;99.90;;;;;;5068280;28;20022;-56
2024/01/30 10:52:25;;;;;;;0.00;0.00;;;10.20;99.90;;;;;;5063128;28;20119;-56
2024/01/30 10:54:52;;;;;;;0.15;0.15;;;10.20;99.90;;;;;;5065136;28;20468;-56
2024/01/30 10:57:18;;;;;;;0.00;0.00;;;;;;;;;;5060650;28;20078;-56
2024/01/30 10:59:45;;;;;;;0.65;0.43;;;9.20;99.90;;;;;;5068935;28;20508;-57
2024/01/30 11:02:11;;;;;;;0.32;0.32;;;10.60;99.90;;;;;;5064598;28;20151;-57
2024/01/30 11:04:41;;;;;;;0.52;0.32;;;10.90;99.90;;;;;;5061777;28;20032;-56
2024/01/30 11:07:23;;;;;;;0.00;0.00;;;10.60;99.90;;;;;;5067798;28;20454;-58
2024/01/30 11:09:50;;;;;;;0.47;0.22;;;10.70;99.90;;;;;;5059644;28;20491;-58
2024/01/30 11:12:16;;;;;;;0.00;0.00;;;10.70;99.90;;;;;;5058883;28;20027;-57
2024/01/30 11:14:43;;;;;;;0.00;0.00;;;10.70;99.90;;;;;;5066687;28;20024;-56
2024/01/30 11:17:12;;;;;;;1.10;0.95;;;10.70;99.90;;;;;;5061835;28;20020;-58
2024/01/30 11:19:38;;;;;;;0.10;0.10;;;10.70;99.90;;;;;;5057270;28;20036;-58
2024/01/30 11:22:06;;;;;;;0.30;0.30;;;10.70;99.90;;;;;;5066047;28;20434;-57
2024/01/30 11:24:43;;;;;;;0.20;0.20;;;10.60;99.90;;;;;;5064827;28;20075;-58
2024/01/30 11:27:12;;;;;;;0.00;0.00;;;10.60;99.90;;;;;;5062772;28;20028;-57
2024/01/30 11:29:39;;;;;;;0.80;0.52;;;10.80;99.90;;;;;;5059850;28;20102;-55
2024/01/30 11:32:05;;;;;;;0.00;0.00;;;10.90;99.90;;;;;;5064362;28;20031;-55
2024/01/30 11:34:33;;;;;;;0.20;0.20;;;10.90;99.90;;;;;;5068291;28;20105;-56
2024/01/30 11:37:09;;;;;;;0.10;0.10;;;11.00;99.90;;;;;;5070542;28;20020;-59
2024/01/30 11:39:36;;;;;;;1.77;0.85;;;10.90;99.90;;;;;;5066219;28;20472;-58
2024/01/30 11:42:04;;;;;;;0.25;0.17;;;10.90;99.90;;;;;;5066520;28;20032;-59
2024/01/30 11:44:30;;;;;;;0.00;0.00;;;10.90;99.90;;;;;;5072450;28;20495;-57
2024/01/30 11:46:56;;;;;;;0.00;0.00;;;10.90;99.90;;;;;;5045690;28;20031;-59
2024/01/30 11:49:23;;;;;;;0.25;0.25;;;10.90;99.90;;;;;;5067725;28;20017;-58
2024/01/30 11:51:49;;;;;;;0.00;0.00;;;10.90;99.90;;;;;;5067475;28;20483;-59
2024/01/30 11:54:17;;;;;;;0.95;0.32;;;10.90;99.90;;;;;;5069994;28;20018;-58
2024/01/30 11:56:43;;;;;;;0.57;0.47;;;11.00;99.90;;;;;;5064632;28;20040;-57
2024/01/30 11:59:09;;;;;;;0.03;0.03;;;10.90;99.90;;;;;;5067838;28;20035;-58
2024/01/30 12:01:35;;;;;;;1.00;0.75;;;10.90;99.90;;;;;;5062735;28;20043;-58
2024/01/30 12:04:00;;;;;;;0.00;0.00;;;10.90;99.90;;;;;;5062332;28;20476;-57
2024/01/30 12:06:26;;;;;;;0.20;0.15;;;10.90;99.90;;;;;;5062176;28;20060;-58
2024/01/30 12:09:04;;;;;;;0.35;0.35;;;11.00;99.90;;;;;;5064674;28;20070;-58
2024/01/30 12:11:30;;;;;;;0.00;0.00;;;11.00;99.90;;;;;;5069373;28;20036;-58
2024/01/30 12:13:56;;;;;;;0.40;0.40;;;11.10;99.90;;;;;;5066485;28;20039;-57
2024/01/30 12:16:22;;;;;;;0.28;0.28;;;11.10;99.90;;;;;;5054792;28;20056;-57
2024/01/30 12:18:48;;;;;;;0.20;0.20;;;11.10;99.90;;;;;;5052508;28;20139;-58
2024/01/30 12:21:16;;;;;;;0.00;0.00;;;11.10;99.90;;;;;;5057842;28;20101;-57
2024/01/30 12:23:42;;;;;;;0.00;0.00;;;11.10;99.90;;;;;;5043295;28;20056;-56
2024/01/30 12:26:08;;;;;;;0.93;0.20;;;11.00;99.90;;;;;;5065135;28;20110;-56
2024/01/30 12:28:34;;;;;;;0.03;0.03;;;11.00;99.90;;;;;;5068332;28;20036;-57
2024/01/30 12:31:05;;;;;;;0.10;0.10;;;11.00;99.90;;;;;;5070039;28;20024;-57
2024/01/30 12:33:31;;;;;;;0.00;0.00;;;11.00;99.90;;;;;;5070635;28;20028;-58
2024/01/30 12:36:01;;;;;;;0.30;0.30;;;11.00;99.90;;;;;;5059826;28;20113;-57
2024/01/30 12:38:27;;;;;;;0.00;0.00;;;11.00;99.90;;;;;;5063496;28;20111;-57
2024/01/30 12:40:56;;;;;;;0.00;0.00;;;11.00;99.90;;;;;;5065088;28;20119;-57
2024/01/30 12:43:23;;;;;;;0.00;0.00;;;11.10;99.90;;;;;;5059006;28;20670;-57
2024/01/30 12:45:49;;;;;;;0.00;0.00;;;11.20;99.90;;;;;;5065770;28;20258;-56
2024/01/30 12:48:15;;;;;;;0.00;0.00;;;11.20;99.90;;;;;;5067273;28;20023;-56
2024/01/30 12:50:41;;;;;;;0.08;0.08;;;11.40;99.90;;;;;;5062102;28;20226;-57